Warning: strtotime(): It is not safe to rely on the system's timezone settings. You are *required* to use the date.timezone setting or the date_default_timezone_set() function. In case you used any of those methods and you are still getting this warning, you most likely misspelled the timezone identifier. We selected the timezone 'UTC' for now, but please set date.timezone to select your timezone. in /var/www/html/reportemetar/elegir_samx_3.php on line 82

Warning: date(): It is not safe to rely on the system's timezone settings. You are *required* to use the date.timezone setting or the date_default_timezone_set() function. In case you used any of those methods and you are still getting this warning, you most likely misspelled the timezone identifier. We selected the timezone 'UTC' for now, but please set date.timezone to select your timezone. in /var/www/html/reportemetar/elegir_samx_3.php on line 82

Warning: date(): It is not safe to rely on the system's timezone settings. You are *required* to use the date.timezone setting or the date_default_timezone_set() function. In case you used any of those methods and you are still getting this warning, you most likely misspelled the timezone identifier. We selected the timezone 'UTC' for now, but please set date.timezone to select your timezone. in /var/www/html/reportemetar/elegir_samx_3.php on line 83

Warning: date(): It is not safe to rely on the system's timezone settings. You are *required* to use the date.timezone setting or the date_default_timezone_set() function. In case you used any of those methods and you are still getting this warning, you most likely misspelled the timezone identifier. We selected the timezone 'UTC' for now, but please set date.timezone to select your timezone. in /var/www/html/reportemetar/elegir_samx_3.php on line 84
Elegir Estacion
Warning: strtotime(): It is not safe to rely on the system's timezone settings. You are *required* to use the date.timezone setting or the date_default_timezone_set() function. In case you used any of those methods and you are still getting this warning, you most likely misspelled the timezone identifier. We selected the timezone 'UTC' for now, but please set date.timezone to select your timezone. in /var/www/html/reportemetar/elegir_samx_3.php on line 9

Warning: date(): It is not safe to rely on the system's timezone settings. You are *required* to use the date.timezone setting or the date_default_timezone_set() function. In case you used any of those methods and you are still getting this warning, you most likely misspelled the timezone identifier. We selected the timezone 'UTC' for now, but please set date.timezone to select your timezone. in /var/www/html/reportemetar/elegir_samx_3.php on line 9
SAMX41
SAMX51 MMMX 182100 METAR MMAA 182045Z 24007KT 7SM OVC300 29/20 A2991 RMK SLP129 57032 900 8/007 HZY=
SAMX51 MMMX 182037 METAR MMBT 182041Z 20010KT 7SM FEW020 SCT150 BKN300 30/// A2994 RMK 8/131 CB N=
SAMX51 MMMX 182054 METAR MMCB 182100Z 18007KT 8SM SCT200 23/04 A3018 RMK 8/002 HZY=
METAR MMIT >>> NO ha hecho cambio de formato S[A|P]MX5?
SAMX51 MMMX 182054 METAR MMCB 182100Z 18007KT 8SM SCT200 23/04 A3018 RMK 8/002 HZY=
SAMX51 MMMX 182047 METAR COR MMOX 182047Z 05004KT 10SM OVC120 17/04 A3028 RMK SLP185 57034 905 8/02/ SC=
SAMX51 MMMX 182100 METAR MMPA 182040Z 36006KT 3SM -DZ BR BKN008 OVC010 14/13 A3030 RMK SLP275 57040 994 60005 8/8// DZB38=
SAMX51 MMMX 182100 METAR MMPB 182051Z 17009KT 8SM SCT230 18/M02 A3030 RMK 8/002 HZY CU=
SAMX51 MMMX 182035 METAR MMPS 182040Z 21009KT 12SM FEW015 SCT090 BKN230 30/20 A3002 RMK SLP/// 5//// 9// 8/134 DSNT TCU E HZY=
SAMX51 MMMX 182100 METAR MMQT 182046Z 00000KT 6SM SCT027 21/02 A3027 RMK 8/100 HZY=
SAMX51 MMMX 182100 METAR MMTM 182045Z E26005KT 4SM SCT002 OVC010 11/11 A3030 RMK SLP261 57046 994 8/5// VRB CONDS=
SAMX51 MMMX 182100 METAR MMTO 182046Z 28003KT 5SM SCT015 BKN200 18/M05 A3032 RMK SLP124 57038 952 8/204 HZY=
SAMX51 MMMX 182100 METAR MMVR 182045Z 03010KT 7SM FEW010 BKN030 OVC070 19/15 A3022 RMK SLP205 57034 991 8/82/ HZY=
SAMX51 MMMX 182100 METAR MMZH 182049Z 21005KT 7SM FEW025 BKN250 29/22 A2995 RMK SLP152 54000 923 8/108 HZY=

SAMX42
SAMX52 MMGL 182100 METAR MMAS 182044Z 19009KT 9SM FEW050 20/M01 A3023 RMK 8/100 HZY=
SAMX52 MMGL 182100 METAR MMEP 182048Z 24009KT 12SM SKC 27/08 A3008 RMK SLP182 57023 959=
SAMX52 MMGL 182100 METAR MMPR 182054Z 20011KT 15SM SKC 25/21 A2995 RMK SLP141 57024 960 MSGTX MMGL =
SAMX52 MMGL 182100 METAR MMIA 182040Z 25008KT 8SM SCT025TCU 28/14 A3002 RMK SLP/// 5//// 9// 8/200 HZY=
SAMX52 MMGL 181900 METAR MMLO 181846Z 00000KT 9SM SKC 18/04 A3036 RMK HZY=
SAMX52 MMGL 182100 METAR MMMM 182044Z 20009KT 8SM FEW030 22/00 A3022 RMK SLP151 57021 902 8/100 HZY=
SAMX52 MMGL 182100 METAR MMPN 182050Z 18010KT 12SM SCT045 22/07 A3018 RMK SLP/// 5//// 9// 6//// 8/500 HZY CI=
SAMX52 MMGL 182100 METAR MMPR 182054Z 20011KT 15SM SKC 25/21 A2995 RMK SLP141 57024 960 MSGTX MMGL=
SAMX52 MMGL 182100 METAR MMSP 182043Z 35004KT 10SM SKC 15/M01 A3024 RMK SLP192 57033 974 HZY SC=
SAMX52 MMGL 182100 METAR MMZC 182044Z 23015G25KT 10SM SCT040 21/M01 A3021 RMK 8/200=
SAMX52 MMGL 182100 METAR MMZO 182043Z 24010KT 12SM FEW020 SCT200 28/21 A2994 RMK SLP/// 5//// 9// 8/109 HZY=

SAMX43
SAMX53 MMMZ 182100 METAR MMCL 182047Z 21008KT 10SM SKC 27/11 A2995 RMK SLP141 57037 976 FU HZY=
SAMX53 MMMZ 182100 METAR MMCN 182041Z 26004KT 10SM SKC 25/05 A2996 RMK SLP146 HZY=
SAMX53 MMMZ 182100 METAR MMDO 182053Z 19012KT 12SM SKC 21/M09 A3013 RMK SLP118 57039 978 ISOL CU HZY=
SAMX53 MMMZ 182100 METAR MMGM 182044Z 20010KT 10SM SKC 24/12 A2995=
SAMX53 MMMZ 182100 METAR MMHO 182040Z 14005KT 10SM SKC 29/M01 A3003 RMK SLP169 57026 960 HZY=
SAMX53 MMMZ 182100 METAR MMLM 182042Z 30006KT 10SM SKC 25/13 A2998 RMK SLP153=
SAMX53 MMMZ 182100 METAR MMLP 182040Z 33011KT 10SM SKC 24/09 A3001 RMK SLP163 57033 965=
SAMX53 MMMZ 182100 METAR MMLT 182040Z 04014KT 8SM SKC 23/12 A2999 RMK SLP156=
SAMX53 MMMZ 182100 METAR MMML 182041Z 02002KT 10SM BKN200 24/M02 A3008 RMK SLP186 57030 977 8/008=
SAMX53 MMMZ 182100 METAR MMDO 182053Z 19012KT 12SM SKC 21/M09 A3013 RMK SLP118 57039 978 ISOL CU HZY=
SAMX53 MMMZ 182100 METAR MMSD 182046Z 12015KT 12SM SKC 25/10 A3000 RMK SLP148 57031 962 CI=
SAMX53 MMMZ 182100 METAR MMSL 182043Z 11013KT 10SM SKC 24/13 A3004=
SAMX53 MMMZ 182100 METAR MMTJ 182052Z 23005KT 10SM SCT210 26/02 A3006 RMK SLP184 57031 966 8/009 HZY=

SAMX44
SAMX54 MMMD 182100 METAR MMCE 182052Z 04008KT 7SM SCT010 OVC070 22/18 A3016 RMK SLP210 57028 974 8/47/=
SAMX54 MMMD 182100 METAR MMCM 182044Z 36012KT 7SM BKN015 OVC070 23/16 A3012 RMK SLP201 5//// 960 8/52/=
SAMX54 MMMD 182100 METAR MMCP 182045Z 02014KT 7SM SCT100 OVC160 23/16 A3014 RMK SLP206 57026 960 8/07/=
SAMX54 MMMD 182100 METAR MMCT 182040Z 08015KT 8SM OVC030 23/13 A3020 RMK 8/5// MSGTX MMMD=
SAMX54 MMMD 182100 METAR MMCZ 182042Z 03014KT 7SM BKN015TCU 22/15 A3017 RMK SLP220 57018 907 8/200 SC CI=
SAMX54 MMMD 182100 METAR MMCE 182052Z 04008KT 7SM SCT010 OVC070 22/18 A3016 RMK SLP210 57028 974 8/47/=
SAMX54 MMMD 182100 METAR COR MMMT 182048Z 00000KT 1SM HZ RA OVC010 17/17 A3018 RMK SLP296 52704 974 8/5//=
SAMX54 MMMD 182100 METAR MMPQ 182042Z 00000KT 4SM BKN020TCU OVC070 22/18 A3005 RMK 8/21/ HZY MSGTX MMMD=
SAMX54 MMMD 182100 METAR MMTG 182048Z 31012G22KT 10SM SCT100 BKN300 21/13 A3011 RMK SLP174 57029 962 8/032 ST OVR MT=
SAMX54 MMMD 182100 METAR MMTP 182044Z 26008KT 10SM FEW015 SCT200 30/21 A2988 RMK SLP142 57004 905 8/105 HZY=
SAMX54 MMMD 182100 METAR MMUN 182052Z 01006KT 7SM BKN015 BKN250 22/14 A3019 RMK SLP225 57021 909 8/108=
SAMX54 MMMD 182100 METAR MMVA 182042Z 00000KT 6SM SCT015 OVC070 22/17 A3018 RMK SLP217 57034 971 8/87/ BINOVC=

SAMX45
SAMX55 MMMY 182100 METAR MMAN 182040Z 01002KT 6SM BKN020 OVC030 01/01 A3037 RMK SLP/// 5//// 9// 8/5// HZY=
SAMX55 MMMY 182100 METAR MMCS 182052Z 02006KT 10SM SKC 10/M10 A3025 RMK SLP235 57030 980=
SAMX55 MMMY 182100 METAR MMCU 182040Z 33005KT 10SM SKC 13/M03 A3022 RMK SLP233 57031 964 HZY=
SAMX55 MMMY 182100 METAR MMCV 182040Z E36006KT 7SM SCT010 OVC030 09/02 A3033 RMK SLP287 57044 993 8/7// HZ=
SAMX55 MMMY 182100 METAR MMIO 182040Z 00000KT 8SM SKC 03/M01 A3028 RMK HZ SC=
SAMX55 MMMY 182100 METAR MMMA 182041Z 32014KT 1SM -DZ BR BKN005 OVC007 03/02 A3037 RMK SLP284 57034 994 60025 8/7// -DZ INTMT VRB COND=
METAR MMMV >>> NO ha hecho cambio de formato S[A|P]MX5?
SAMX55 MMMY 182100 METAR MMCS 182052Z 02006KT 10SM SKC 10/M10 A3025 RMK SLP235 57030 980=
SAMX55 MMMY 182100 METAR MMNL 182040Z 00000KT 10SM OVC030 06/M02 A3040 RMK SLP294 57039 992 8/5//=
SAMX55 MMMY 182100 METAR MMPG 182040Z 12003KT 10SM OVC050 05/M06 A3039 RMK 8/5//=
SAMX55 MMMY 182100 METAR MMRX 182046Z 32010KT 1SM BR DZ BKN003 OVC006 02/01 A3040 RMK SLP286 57038 995 60035 8/7//=
SAMX55 MMMY 182100 METAR MMTC 182040Z 00000KT 10SM SKC 13/00 A3021 RMK SLP236 57020 970 HZY=